sensor_id;sensor_type;location;lat;lon;timestamp;P1;durP1;ratioP1;P2;durP2;ratioP2
28836;SDS011;50669;50.982;11.022;2023-09-07T00:00:44;7.97;;;5.82;;
28836;SDS011;50669;50.982;11.022;2023-09-07T00:03:13;6.15;;;5.40;;
28836;SDS011;50669;50.982;11.022;2023-09-07T00:05:39;9.10;;;5.97;;
28836;SDS011;50669;50.982;11.022;2023-09-07T00:08:08;7.93;;;5.82;;
28836;SDS011;50669;50.982;11.022;2023-09-07T00:10:36;8.60;;;5.72;;
28836;SDS011;50669;50.982;11.022;2023-09-07T00:13:02;6.80;;;5.97;;
28836;SDS011;50669;50.982;11.022;2023-09-07T00:15:28;9.90;;;6.28;;
28836;SDS011;50669;50.982;11.022;2023-09-07T00:17:55;7.35;;;6.32;;
28836;SDS011;50669;50.982;11.022;2023-09-07T00:20:21;8.00;;;6.10;;
28836;SDS011;50669;50.982;11.022;2023-09-07T00:22:50;8.32;;;5.88;;
28836;SDS011;50669;50.982;11.022;2023-09-07T00:25:15;6.60;;;5.97;;
28836;SDS011;50669;50.982;11.022;2023-09-07T00:27:41;6.50;;;5.90;;
28836;SDS011;50669;50.982;11.022;2023-09-07T00:30:07;7.05;;;5.68;;
28836;SDS011;50669;50.982;11.022;2023-09-07T00:32:35;7.00;;;6.30;;
28836;SDS011;50669;50.982;11.022;2023-09-07T00:35:02;6.53;;;5.82;;
28836;SDS011;50669;50.982;11.022;2023-09-07T00:37:28;7.28;;;6.25;;
28836;SDS011;50669;50.982;11.022;2023-09-07T00:39:56;8.05;;;6.32;;
28836;SDS011;50669;50.982;11.022;2023-09-07T00:42:22;7.35;;;6.50;;
28836;SDS011;50669;50.982;11.022;2023-09-07T00:44:47;7.93;;;6.10;;
28836;SDS011;50669;50.982;11.022;2023-09-07T00:47:15;6.85;;;6.13;;
28836;SDS011;50669;50.982;11.022;2023-09-07T00:49:42;6.97;;;6.15;;
28836;SDS011;50669;50.982;11.022;2023-09-07T00:52:10;8.20;;;6.22;;
28836;SDS011;50669;50.982;11.022;2023-09-07T00:54:38;6.70;;;6.03;;
28836;SDS011;50669;50.982;11.022;2023-09-07T00:57:08;8.63;;;6.25;;
28836;SDS011;50669;50.982;11.022;2023-09-07T00:59:34;9.60;;;6.53;;
28836;SDS011;50669;50.982;11.022;2023-09-07T01:02:00;9.32;;;6.63;;
28836;SDS011;50669;50.982;11.022;2023-09-07T01:04:25;7.93;;;6.13;;
28836;SDS011;50669;50.982;11.022;2023-09-07T01:06:55;8.55;;;6.90;;
28836;SDS011;50669;50.982;11.022;2023-09-07T01:09:26;9.20;;;6.78;;
28836;SDS011;50669;50.982;11.022;2023-09-07T01:11:55;7.22;;;6.45;;
28836;SDS011;50669;50.982;11.022;2023-09-07T01:14:23;8.85;;;5.63;;
28836;SDS011;50669;50.982;11.022;2023-09-07T01:16:49;7.65;;;6.55;;
28836;SDS011;50669;50.982;11.022;2023-09-07T01:19:17;7.82;;;6.70;;
28836;SDS011;50669;50.982;11.022;2023-09-07T01:21:43;7.78;;;6.45;;
28836;SDS011;50669;50.982;11.022;2023-09-07T01:24:10;10.52;;;6.55;;
28836;SDS011;50669;50.982;11.022;2023-09-07T01:26:37;7.07;;;5.95;;
28836;SDS011;50669;50.982;11.022;2023-09-07T01:29:04;8.20;;;6.60;;
28836;SDS011;50669;50.982;11.022;2023-09-07T01:31:34;6.50;;;5.88;;
28836;SDS011;50669;50.982;11.022;2023-09-07T01:34:05;8.85;;;6.55;;
28836;SDS011;50669;50.982;11.022;2023-09-07T01:36:31;8.05;;;5.70;;
28836;SDS011;50669;50.982;11.022;2023-09-07T01:38:57;7.75;;;6.03;;
28836;SDS011;50669;50.982;11.022;2023-09-07T01:41:23;7.85;;;6.80;;
28836;SDS011;50669;50.982;11.022;2023-09-07T01:43:49;8.57;;;5.80;;
28836;SDS011;50669;50.982;11.022;2023-09-07T01:46:14;7.07;;;6.22;;
28836;SDS011;50669;50.982;11.022;2023-09-07T01:48:40;7.28;;;6.13;;
28836;SDS011;50669;50.982;11.022;2023-09-07T01:51:07;6.70;;;6.00;;
28836;SDS011;50669;50.982;11.022;2023-09-07T01:53:33;10.20;;;6.43;;
28836;SDS011;50669;50.982;11.022;2023-09-07T01:55:58;7.35;;;6.05;;
28836;SDS011;50669;50.982;11.022;2023-09-07T01:58:24;7.93;;;6.32;;
28836;SDS011;50669;50.982;11.022;2023-09-07T02:00:52;7.13;;;6.43;;
28836;SDS011;50669;50.982;11.022;2023-09-07T02:03:23;7.30;;;6.53;;
28836;SDS011;50669;50.982;11.022;2023-09-07T02:05:50;6.68;;;6.03;;
28836;SDS011;50669;50.982;11.022;2023-09-07T02:08:15;9.05;;;6.55;;
28836;SDS011;50669;50.982;11.022;2023-09-07T02:10:46;11.40;;;6.05;;
28836;SDS011;50669;50.982;11.022;2023-09-07T02:13:12;6.82;;;6.13;;
28836;SDS011;50669;50.982;11.022;2023-09-07T02:15:40;9.00;;;6.70;;
28836;SDS011;50669;50.982;11.022;2023-09-07T02:18:06;9.57;;;6.63;;
28836;SDS011;50669;50.982;11.022;2023-09-07T02:20:32;8.63;;;6.63;;
28836;SDS011;50669;50.982;11.022;2023-09-07T02:22:58;9.88;;;6.93;;
28836;SDS011;50669;50.982;11.022;2023-09-07T02:25:24;9.38;;;6.50;;
28836;SDS011;50669;50.982;11.022;2023-09-07T02:27:49;7.15;;;6.15;;
28836;SDS011;50669;50.982;11.022;2023-09-07T02:30:15;8.15;;;7.15;;
28836;SDS011;50669;50.982;11.022;2023-09-07T02:32:42;7.32;;;6.30;;
28836;SDS011;50669;50.982;11.022;2023-09-07T02:35:10;8.23;;;6.75;;
28836;SDS011;50669;50.982;11.022;2023-09-07T02:37:38;7.80;;;7.00;;
28836;SDS011;50669;50.982;11.022;2023-09-07T02:40:06;9.43;;;6.53;;
28836;SDS011;50669;50.982;11.022;2023-09-07T02:42:35;8.05;;;7.05;;
28836;SDS011;50669;50.982;11.022;2023-09-07T02:45:01;9.25;;;7.10;;
28836;SDS011;50669;50.982;11.022;2023-09-07T02:47:26;9.27;;;7.38;;
28836;SDS011;50669;50.982;11.022;2023-09-07T02:49:57;9.40;;;7.45;;
28836;SDS011;50669;50.982;11.022;2023-09-07T02:52:23;7.65;;;6.82;;
28836;SDS011;50669;50.982;11.022;2023-09-07T02:54:48;7.88;;;7.07;;
28836;SDS011;50669;50.982;11.022;2023-09-07T02:57:16;8.27;;;6.55;;
28836;SDS011;50669;50.982;11.022;2023-09-07T02:59:44;9.98;;;7.07;;
28836;SDS011;50669;50.982;11.022;2023-09-07T03:02:09;10.98;;;6.95;;
28836;SDS011;50669;50.982;11.022;2023-09-07T03:04:35;9.70;;;6.88;;
28836;SDS011;50669;50.982;11.022;2023-09-07T03:07:01;9.70;;;7.68;;
28836;SDS011;50669;50.982;11.022;2023-09-07T03:09:31;8.30;;;7.13;;
28836;SDS011;50669;50.982;11.022;2023-09-07T03:11:56;10.50;;;7.00;;
28836;SDS011;50669;50.982;11.022;2023-09-07T03:14:25;8.68;;;7.05;;
28836;SDS011;50669;50.982;11.022;2023-09-07T03:16:53;8.60;;;7.13;;
28836;SDS011;50669;50.982;11.022;2023-09-07T03:19:19;9.60;;;7.30;;
28836;SDS011;50669;50.982;11.022;2023-09-07T03:21:47;9.43;;;7.22;;
28836;SDS011;50669;50.982;11.022;2023-09-07T03:24:17;10.13;;;7.47;;
28836;SDS011;50669;50.982;11.022;2023-09-07T03:26:45;10.00;;;7.75;;
28836;SDS011;50669;50.982;11.022;2023-09-07T03:29:11;9.15;;;7.85;;
28836;SDS011;50669;50.982;11.022;2023-09-07T03:31:36;11.07;;;7.65;;
28836;SDS011;50669;50.982;11.022;2023-09-07T03:34:07;9.63;;;7.60;;
28836;SDS011;50669;50.982;11.022;2023-09-07T03:36:32;10.00;;;7.05;;
28836;SDS011;50669;50.982;11.022;2023-09-07T03:38:58;9.63;;;8.07;;
28836;SDS011;50669;50.982;11.022;2023-09-07T03:41:23;10.60;;;7.93;;
28836;SDS011;50669;50.982;11.022;2023-09-07T03:43:55;9.07;;;7.55;;
28836;SDS011;50669;50.982;11.022;2023-09-07T03:46:24;10.18;;;8.05;;
28836;SDS011;50669;50.982;11.022;2023-09-07T03:48:51;10.52;;;7.05;;
28836;SDS011;50669;50.982;11.022;2023-09-07T03:51:16;9.57;;;7.68;;
28836;SDS011;50669;50.982;11.022;2023-09-07T03:53:42;11.27;;;7.47;;
28836;SDS011;50669;50.982;11.022;2023-09-07T03:56:08;9.15;;;7.78;;
28836;SDS011;50669;50.982;11.022;2023-09-07T03:58:34;10.00;;;8.00;;
28836;SDS011;50669;50.982;11.022;2023-09-07T04:01:02;8.68;;;7.53;;
28836;SDS011;50669;50.982;11.022;2023-09-07T04:03:28;13.80;;;7.88;;
28836;SDS011;50669;50.982;11.022;2023-09-07T04:05:53;13.85;;;8.20;;
28836;SDS011;50669;50.982;11.022;2023-09-07T04:08:19;8.18;;;7.32;;
28836;SDS011;50669;50.982;11.022;2023-09-07T04:10:45;8.95;;;7.82;;
28836;SDS011;50669;50.982;11.022;2023-09-07T04:13:13;12.38;;;8.00;;
28836;SDS011;50669;50.982;11.022;2023-09-07T04:15:41;12.18;;;8.13;;
28836;SDS011;50669;50.982;11.022;2023-09-07T04:18:10;9.10;;;8.13;;
28836;SDS011;50669;50.982;11.022;2023-09-07T04:20:43;12.85;;;8.48;;
28836;SDS011;50669;50.982;11.022;2023-09-07T04:23:09;10.07;;;8.07;;
28836;SDS011;50669;50.982;11.022;2023-09-07T04:25:39;18.73;;;8.55;;
28836;SDS011;50669;50.982;11.022;2023-09-07T04:28:05;11.43;;;8.48;;
28836;SDS011;50669;50.982;11.022;2023-09-07T04:30:32;9.52;;;7.55;;
28836;SDS011;50669;50.982;11.022;2023-09-07T04:33:01;10.48;;;8.15;;
28836;SDS011;50669;50.982;11.022;2023-09-07T04:35:30;9.70;;;8.65;;
28836;SDS011;50669;50.982;11.022;2023-09-07T04:37:57;9.43;;;8.35;;
28836;SDS011;50669;50.982;11.022;2023-09-07T04:40:25;10.98;;;7.95;;
28836;SDS011;50669;50.982;11.022;2023-09-07T04:42:51;11.77;;;8.35;;
28836;SDS011;50669;50.982;11.022;2023-09-07T04:45:17;14.38;;;8.52;;
28836;SDS011;50669;50.982;11.022;2023-09-07T04:47:43;11.75;;;8.55;;
28836;SDS011;50669;50.982;11.022;2023-09-07T04:50:09;8.27;;;7.00;;
28836;SDS011;50669;50.982;11.022;2023-09-07T04:52:35;10.30;;;7.80;;
28836;SDS011;50669;50.982;11.022;2023-09-07T04:55:03;8.88;;;6.78;;
28836;SDS011;50669;50.982;11.022;2023-09-07T04:57:30;8.77;;;7.28;;
28836;SDS011;50669;50.982;11.022;2023-09-07T04:59:56;12.80;;;7.05;;
28836;SDS011;50669;50.982;11.022;2023-09-07T05:02:24;8.63;;;7.53;;
28836;SDS011;50669;50.982;11.022;2023-09-07T05:04:50;8.63;;;7.07;;
28836;SDS011;50669;50.982;11.022;2023-09-07T05:07:18;9.77;;;7.43;;
28836;SDS011;50669;50.982;11.022;2023-09-07T05:09:44;12.43;;;6.57;;
28836;SDS011;50669;50.982;11.022;2023-09-07T05:12:09;6.45;;;5.82;;
28836;SDS011;50669;50.982;11.022;2023-09-07T05:14:35;7.65;;;5.45;;
28836;SDS011;50669;50.982;11.022;2023-09-07T05:17:01;6.35;;;4.93;;
28836;SDS011;50669;50.982;11.022;2023-09-07T05:19:27;7.90;;;5.28;;
28836;SDS011;50669;50.982;11.022;2023-09-07T05:21:54;8.95;;;5.05;;
28836;SDS011;50669;50.982;11.022;2023-09-07T05:24:20;6.85;;;5.22;;
28836;SDS011;50669;50.982;11.022;2023-09-07T05:26:49;6.05;;;5.20;;
28836;SDS011;50669;50.982;11.022;2023-09-07T05:29:17;8.95;;;5.07;;
28836;SDS011;50669;50.982;11.022;2023-09-07T05:31:43;6.70;;;4.78;;
28836;SDS011;50669;50.982;11.022;2023-09-07T05:34:08;8.13;;;5.20;;
28836;SDS011;50669;50.982;11.022;2023-09-07T05:36:36;6.60;;;4.97;;
28836;SDS011;50669;50.982;11.022;2023-09-07T05:39:02;5.80;;;4.80;;
28836;SDS011;50669;50.982;11.022;2023-09-07T05:41:29;8.02;;;4.95;;
28836;SDS011;50669;50.982;11.022;2023-09-07T05:43:55;5.47;;;4.80;;
28836;SDS011;50669;50.982;11.022;2023-09-07T05:46:20;5.65;;;4.40;;
28836;SDS011;50669;50.982;11.022;2023-09-07T05:48:46;5.78;;;4.28;;
28836;SDS011;50669;50.982;11.022;2023-09-07T05:51:12;5.90;;;4.40;;
28836;SDS011;50669;50.982;11.022;2023-09-07T05:53:38;5.60;;;4.55;;
28836;SDS011;50669;50.982;11.022;2023-09-07T05:56:04;6.03;;;4.35;;
28836;SDS011;50669;50.982;11.022;2023-09-07T05:58:32;4.90;;;4.40;;
28836;SDS011;50669;50.982;11.022;2023-09-07T06:01:04;4.90;;;4.25;;
28836;SDS011;50669;50.982;11.022;2023-09-07T06:03:30;5.50;;;4.82;;
28836;SDS011;50669;50.982;11.022;2023-09-07T06:05:57;6.05;;;4.45;;
28836;SDS011;50669;50.982;11.022;2023-09-07T06:08:25;5.80;;;4.50;;
28836;SDS011;50669;50.982;11.022;2023-09-07T06:10:51;6.13;;;4.57;;
28836;SDS011;50669;50.982;11.022;2023-09-07T06:13:18;4.68;;;4.25;;
28836;SDS011;50669;50.982;11.022;2023-09-07T06:15:43;4.97;;;4.47;;
28836;SDS011;50669;50.982;11.022;2023-09-07T06:18:11;6.80;;;4.30;;
28836;SDS011;50669;50.982;11.022;2023-09-07T06:20:42;5.60;;;4.57;;
28836;SDS011;50669;50.982;11.022;2023-09-07T06:23:09;5.80;;;4.18;;
28836;SDS011;50669;50.982;11.022;2023-09-07T06:25:37;4.88;;;4.10;;
28836;SDS011;50669;50.982;11.022;2023-09-07T06:28:03;7.93;;;4.47;;
28836;SDS011;50669;50.982;11.022;2023-09-07T06:30:29;5.28;;;4.78;;
28836;SDS011;50669;50.982;11.022;2023-09-07T06:32:55;4.78;;;4.28;;
28836;SDS011;50669;50.982;11.022;2023-09-07T06:35:22;4.60;;;3.95;;
28836;SDS011;50669;50.982;11.022;2023-09-07T06:37:47;7.13;;;5.03;;
28836;SDS011;50669;50.982;11.022;2023-09-07T06:40:13;6.68;;;4.93;;
28836;SDS011;50669;50.982;11.022;2023-09-07T06:42:42;6.00;;;4.82;;
28836;SDS011;50669;50.982;11.022;2023-09-07T06:45:08;5.68;;;4.40;;
28836;SDS011;50669;50.982;11.022;2023-09-07T06:47:35;5.65;;;4.40;;
28836;SDS011;50669;50.982;11.022;2023-09-07T06:50:01;5.28;;;4.50;;
28836;SDS011;50669;50.982;11.022;2023-09-07T06:52:27;5.13;;;4.05;;
28836;SDS011;50669;50.982;11.022;2023-09-07T06:54:55;5.15;;;4.20;;
28836;SDS011;50669;50.982;11.022;2023-09-07T06:57:20;6.25;;;4.15;;
28836;SDS011;50669;50.982;11.022;2023-09-07T06:59:46;5.60;;;4.15;;
28836;SDS011;50669;50.982;11.022;2023-09-07T07:02:15;5.38;;;4.43;;
28836;SDS011;50669;50.982;11.022;2023-09-07T07:04:43;5.95;;;4.40;;
28836;SDS011;50669;50.982;11.022;2023-09-07T07:07:11;5.45;;;4.13;;
28836;SDS011;50669;50.982;11.022;2023-09-07T07:09:39;4.88;;;4.30;;
28836;SDS011;50669;50.982;11.022;2023-09-07T07:12:04;4.50;;;4.10;;
28836;SDS011;50669;50.982;11.022;2023-09-07T07:14:30;5.50;;;3.97;;
28836;SDS011;50669;50.982;11.022;2023-09-07T07:16:56;4.22;;;3.83;;
28836;SDS011;50669;50.982;11.022;2023-09-07T07:19:26;6.85;;;4.43;;
28836;SDS011;50669;50.982;11.022;2023-09-07T07:21:55;5.07;;;4.15;;
28836;SDS011;50669;50.982;11.022;2023-09-07T07:24:23;4.50;;;4.00;;
28836;SDS011;50669;50.982;11.022;2023-09-07T07:26:48;4.65;;;3.88;;
28836;SDS011;50669;50.982;11.022;2023-09-07T07:29:14;4.10;;;3.70;;
28836;SDS011;50669;50.982;11.022;2023-09-07T07:31:42;6.28;;;4.55;;
28836;SDS011;50669;50.982;11.022;2023-09-07T07:34:08;5.07;;;3.60;;
28836;SDS011;50669;50.982;11.022;2023-09-07T07:36:34;5.80;;;4.10;;
28836;SDS011;50669;50.982;11.022;2023-09-07T07:39:00;5.57;;;4.45;;
28836;SDS011;50669;50.982;11.022;2023-09-07T07:41:28;7.03;;;4.45;;
28836;SDS011;50669;50.982;11.022;2023-09-07T07:43:56;5.32;;;4.15;;
28836;SDS011;50669;50.982;11.022;2023-09-07T07:46:22;6.18;;;4.13;;
28836;SDS011;50669;50.982;11.022;2023-09-07T07:48:47;4.95;;;4.28;;
28836;SDS011;50669;50.982;11.022;2023-09-07T07:51:15;6.03;;;4.00;;
28836;SDS011;50669;50.982;11.022;2023-09-07T07:53:41;7.32;;;4.50;;
28836;SDS011;50669;50.982;11.022;2023-09-07T07:56:18;5.78;;;4.00;;
28836;SDS011;50669;50.982;11.022;2023-09-07T07:58:44;5.65;;;3.88;;
28836;SDS011;50669;50.982;11.022;2023-09-07T08:01:16;4.95;;;4.18;;
28836;SDS011;50669;50.982;11.022;2023-09-07T08:03:45;5.20;;;4.30;;
28836;SDS011;50669;50.982;11.022;2023-09-07T08:06:11;6.82;;;4.10;;
28836;SDS011;50669;50.982;11.022;2023-09-07T08:08:39;6.13;;;3.78;;
28836;SDS011;50669;50.982;11.022;2023-09-07T08:11:07;6.28;;;4.65;;
28836;SDS011;50669;50.982;11.022;2023-09-07T08:13:34;5.03;;;4.05;;
28836;SDS011;50669;50.982;11.022;2023-09-07T08:16:04;4.78;;;4.20;;
28836;SDS011;50669;50.982;11.022;2023-09-07T08:18:32;6.40;;;4.78;;
28836;SDS011;50669;50.982;11.022;2023-09-07T08:20:59;5.78;;;4.03;;
28836;SDS011;50669;50.982;11.022;2023-09-07T08:23:24;4.70;;;4.07;;
28836;SDS011;50669;50.982;11.022;2023-09-07T08:25:53;5.22;;;4.03;;
28836;SDS011;50669;50.982;11.022;2023-09-07T08:28:19;5.30;;;4.00;;
28836;SDS011;50669;50.982;11.022;2023-09-07T08:30:50;7.18;;;4.07;;
28836;SDS011;50669;50.982;11.022;2023-09-07T08:33:18;4.63;;;4.05;;
28836;SDS011;50669;50.982;11.022;2023-09-07T08:35:51;4.18;;;3.80;;
28836;SDS011;50669;50.982;11.022;2023-09-07T08:38:20;7.07;;;4.47;;
28836;SDS011;50669;50.982;11.022;2023-09-07T08:40:55;7.32;;;3.80;;
28836;SDS011;50669;50.982;11.022;2023-09-07T08:43:25;5.57;;;4.35;;
28836;SDS011;50669;50.982;11.022;2023-09-07T08:48:39;6.15;;;4.18;;
28836;SDS011;50669;50.982;11.022;2023-09-07T08:51:07;6.20;;;4.18;;
28836;SDS011;50669;50.982;11.022;2023-09-07T08:53:34;4.70;;;3.97;;
28836;SDS011;50669;50.982;11.022;2023-09-07T08:56:02;8.68;;;3.92;;
28836;SDS011;50669;50.982;11.022;2023-09-07T08:58:28;5.57;;;4.25;;
28836;SDS011;50669;50.982;11.022;2023-09-07T09:00:54;4.57;;;3.80;;
28836;SDS011;50669;50.982;11.022;2023-09-07T09:03:22;5.38;;;4.03;;
28836;SDS011;50669;50.982;11.022;2023-09-07T09:05:50;7.25;;;4.22;;
28836;SDS011;50669;50.982;11.022;2023-09-07T09:08:16;4.78;;;3.60;;
28836;SDS011;50669;50.982;11.022;2023-09-07T09:10:45;4.45;;;3.63;;
28836;SDS011;50669;50.982;11.022;2023-09-07T09:13:16;5.22;;;3.92;;
28836;SDS011;50669;50.982;11.022;2023-09-07T09:15:51;5.38;;;4.10;;
28836;SDS011;50669;50.982;11.022;2023-09-07T09:18:17;5.15;;;4.03;;
28836;SDS011;50669;50.982;11.022;2023-09-07T09:20:46;4.47;;;3.50;;
28836;SDS011;50669;50.982;11.022;2023-09-07T09:23:11;4.68;;;3.60;;
28836;SDS011;50669;50.982;11.022;2023-09-07T09:25:42;5.53;;;4.60;;
28836;SDS011;50669;50.982;11.022;2023-09-07T09:28:09;6.25;;;4.03;;
28836;SDS011;50669;50.982;11.022;2023-09-07T09:30:35;4.10;;;3.67;;
28836;SDS011;50669;50.982;11.022;2023-09-07T09:33:04;6.03;;;3.70;;
28836;SDS011;50669;50.982;11.022;2023-09-07T09:35:31;6.43;;;4.22;;
28836;SDS011;50669;50.982;11.022;2023-09-07T09:38:00;6.50;;;3.65;;
28836;SDS011;50669;50.982;11.022;2023-09-07T09:40:29;5.55;;;3.70;;
28836;SDS011;50669;50.982;11.022;2023-09-07T09:43:02;5.68;;;3.65;;
28836;SDS011;50669;50.982;11.022;2023-09-07T09:45:31;5.65;;;4.25;;
28836;SDS011;50669;50.982;11.022;2023-09-07T09:48:00;5.47;;;3.85;;
28836;SDS011;50669;50.982;11.022;2023-09-07T09:50:30;6.28;;;3.65;;
28836;SDS011;50669;50.982;11.022;2023-09-07T09:52:56;4.45;;;3.45;;
28836;SDS011;50669;50.982;11.022;2023-09-07T09:55:23;5.03;;;3.70;;
28836;SDS011;50669;50.982;11.022;2023-09-07T09:57:52;5.32;;;3.80;;
28836;SDS011;50669;50.982;11.022;2023-09-07T10:00:17;4.40;;;3.33;;
28836;SDS011;50669;50.982;11.022;2023-09-07T10:02:50;5.40;;;3.80;;
28836;SDS011;50669;50.982;11.022;2023-09-07T10:05:22;5.00;;;3.47;;
28836;SDS011;50669;50.982;11.022;2023-09-07T10:07:51;5.28;;;3.92;;
28836;SDS011;50669;50.982;11.022;2023-09-07T10:10:17;6.63;;;3.95;;
28836;SDS011;50669;50.982;11.022;2023-09-07T10:12:45;4.07;;;3.55;;
28836;SDS011;50669;50.982;11.022;2023-09-07T10:15:34;4.85;;;3.90;;
28836;SDS011;50669;50.982;11.022;2023-09-07T10:18:08;5.05;;;3.70;;
28836;SDS011;50669;50.982;11.022;2023-09-07T10:23:19;5.45;;;3.58;;
28836;SDS011;50669;50.982;11.022;2023-09-07T10:25:52;6.05;;;3.90;;
28836;SDS011;50669;50.982;11.022;2023-09-07T10:28:24;4.80;;;3.75;;
28836;SDS011;50669;50.982;11.022;2023-09-07T10:31:00;5.82;;;3.60;;
28836;SDS011;50669;50.982;11.022;2023-09-07T10:33:30;4.53;;;3.72;;
28836;SDS011;50669;50.982;11.022;2023-09-07T10:35:59;5.15;;;3.70;;
28836;SDS011;50669;50.982;11.022;2023-09-07T10:38:26;4.30;;;3.80;;
28836;SDS011;50669;50.982;11.022;2023-09-07T10:40:56;5.22;;;3.72;;
28836;SDS011;50669;50.982;11.022;2023-09-07T10:43:23;4.30;;;3.30;;
28836;SDS011;50669;50.982;11.022;2023-09-07T10:45:50;4.88;;;3.65;;
28836;SDS011;50669;50.982;11.022;2023-09-07T10:48:16;5.13;;;3.45;;
28836;SDS011;50669;50.982;11.022;2023-09-07T10:50:47;4.93;;;3.55;;
28836;SDS011;50669;50.982;11.022;2023-09-07T10:53:15;4.75;;;3.50;;
28836;SDS011;50669;50.982;11.022;2023-09-07T10:55:50;4.65;;;3.60;;
28836;SDS011;50669;50.982;11.022;2023-09-07T10:58:24;4.03;;;3.63;;
28836;SDS011;50669;50.982;11.022;2023-09-07T11:00:54;5.15;;;3.47;;
28836;SDS011;50669;50.982;11.022;2023-09-07T11:03:20;6.95;;;4.03;;
28836;SDS011;50669;50.982;11.022;2023-09-07T11:05:48;5.50;;;3.67;;
28836;SDS011;50669;50.982;11.022;2023-09-07T11:08:18;4.40;;;3.15;;
28836;SDS011;50669;50.982;11.022;2023-09-07T11:10:44;4.53;;;3.50;;
28836;SDS011;50669;50.982;11.022;2023-09-07T11:13:10;5.45;;;3.70;;
28836;SDS011;50669;50.982;11.022;2023-09-07T11:15:35;4.47;;;3.67;;
28836;SDS011;50669;50.982;11.022;2023-09-07T11:18:05;4.68;;;3.75;;
28836;SDS011;50669;50.982;11.022;2023-09-07T11:20:35;4.85;;;3.60;;
28836;SDS011;50669;50.982;11.022;2023-09-07T11:23:02;3.83;;;3.38;;
28836;SDS011;50669;50.982;11.022;2023-09-07T11:25:34;4.68;;;3.78;;
28836;SDS011;50669;50.982;11.022;2023-09-07T11:28:07;4.38;;;3.47;;
28836;SDS011;50669;50.982;11.022;2023-09-07T11:30:34;6.05;;;3.50;;
28836;SDS011;50669;50.982;11.022;2023-09-07T11:33:06;4.55;;;3.50;;
28836;SDS011;50669;50.982;11.022;2023-09-07T11:35:35;5.40;;;3.78;;
28836;SDS011;50669;50.982;11.022;2023-09-07T11:38:02;4.72;;;3.42;;
28836;SDS011;50669;50.982;11.022;2023-09-07T11:40:32;4.95;;;3.92;;
28836;SDS011;50669;50.982;11.022;2023-09-07T11:43:00;4.90;;;3.80;;
28836;SDS011;50669;50.982;11.022;2023-09-07T11:45:28;4.53;;;3.63;;
28836;SDS011;50669;50.982;11.022;2023-09-07T11:47:57;5.18;;;3.55;;
28836;SDS011;50669;50.982;11.022;2023-09-07T11:50:25;4.70;;;3.58;;
28836;SDS011;50669;50.982;11.022;2023-09-07T11:52:50;4.13;;;3.30;;
28836;SDS011;50669;50.982;11.022;2023-09-07T11:55:16;4.18;;;3.33;;
28836;SDS011;50669;50.982;11.022;2023-09-07T11:57:42;5.13;;;3.53;;
28836;SDS011;50669;50.982;11.022;2023-09-07T12:00:08;3.80;;;3.10;;
28836;SDS011;50669;50.982;11.022;2023-09-07T12:02:38;4.22;;;3.28;;
28836;SDS011;50669;50.982;11.022;2023-09-07T12:05:04;4.50;;;3.50;;
28836;SDS011;50669;50.982;11.022;2023-09-07T12:07:32;4.07;;;3.25;;
28836;SDS011;50669;50.982;11.022;2023-09-07T12:09:58;4.50;;;3.50;;
28836;SDS011;50669;50.982;11.022;2023-09-07T12:12:23;4.78;;;4.03;;
28836;SDS011;50669;50.982;11.022;2023-09-07T12:14:51;4.07;;;3.10;;
28836;SDS011;50669;50.982;11.022;2023-09-07T12:17:21;4.75;;;3.42;;
28836;SDS011;50669;50.982;11.022;2023-09-07T12:19:47;4.35;;;3.50;;
28836;SDS011;50669;50.982;11.022;2023-09-07T12:22:12;3.83;;;3.17;;
28836;SDS011;50669;50.982;11.022;2023-09-07T12:24:40;4.40;;;3.65;;
28836;SDS011;50669;50.982;11.022;2023-09-07T12:27:06;3.47;;;3.03;;
28836;SDS011;50669;50.982;11.022;2023-09-07T12:29:31;5.28;;;3.72;;
28836;SDS011;50669;50.982;11.022;2023-09-07T12:31:57;4.82;;;3.28;;
28836;SDS011;50669;50.982;11.022;2023-09-07T12:34:23;5.15;;;3.50;;
28836;SDS011;50669;50.982;11.022;2023-09-07T12:36:49;4.13;;;3.50;;
28836;SDS011;50669;50.982;11.022;2023-09-07T12:39:17;4.90;;;3.20;;
28836;SDS011;50669;50.982;11.022;2023-09-07T12:41:47;4.68;;;3.45;;
28836;SDS011;50669;50.982;11.022;2023-09-07T12:44:12;4.93;;;3.60;;
28836;SDS011;50669;50.982;11.022;2023-09-07T12:46:38;4.22;;;3.05;;
28836;SDS011;50669;50.982;11.022;2023-09-07T12:49:04;3.53;;;3.10;;
28836;SDS011;50669;50.982;11.022;2023-09-07T12:51:30;3.80;;;2.90;;
28836;SDS011;50669;50.982;11.022;2023-09-07T12:53:56;3.92;;;3.50;;
28836;SDS011;50669;50.982;11.022;2023-09-07T12:56:23;4.95;;;3.60;;
28836;SDS011;50669;50.982;11.022;2023-09-07T12:58:52;4.55;;;3.45;;
28836;SDS011;50669;50.982;11.022;2023-09-07T13:01:18;4.15;;;3.65;;
28836;SDS011;50669;50.982;11.022;2023-09-07T13:03:46;4.70;;;3.50;;
28836;SDS011;50669;50.982;11.022;2023-09-07T13:06:14;4.63;;;3.10;;
28836;SDS011;50669;50.982;11.022;2023-09-07T13:08:42;3.72;;;3.30;;
28836;SDS011;50669;50.982;11.022;2023-09-07T13:11:08;4.38;;;3.17;;
28836;SDS011;50669;50.982;11.022;2023-09-07T13:13:36;4.50;;;3.22;;
28836;SDS011;50669;50.982;11.022;2023-09-07T13:16:05;4.35;;;3.70;;
28836;SDS011;50669;50.982;11.022;2023-09-07T13:18:30;5.75;;;3.67;;
28836;SDS011;50669;50.982;11.022;2023-09-07T13:20:59;3.75;;;2.90;;
28836;SDS011;50669;50.982;11.022;2023-09-07T13:23:27;4.70;;;3.42;;
28836;SDS011;50669;50.982;11.022;2023-09-07T13:25:56;4.10;;;3.58;;
28836;SDS011;50669;50.982;11.022;2023-09-07T13:28:21;4.57;;;3.42;;
28836;SDS011;50669;50.982;11.022;2023-09-07T13:30:48;3.60;;;3.25;;
28836;SDS011;50669;50.982;11.022;2023-09-07T13:33:17;4.68;;;3.15;;
28836;SDS011;50669;50.982;11.022;2023-09-07T13:35:45;4.07;;;3.25;;
28836;SDS011;50669;50.982;11.022;2023-09-07T13:38:11;3.58;;;3.20;;
28836;SDS011;50669;50.982;11.022;2023-09-07T13:40:36;5.10;;;3.53;;
28836;SDS011;50669;50.982;11.022;2023-09-07T13:43:04;4.15;;;3.40;;
28836;SDS011;50669;50.982;11.022;2023-09-07T13:45:30;3.92;;;2.92;;
28836;SDS011;50669;50.982;11.022;2023-09-07T13:47:57;4.32;;;3.17;;
28836;SDS011;50669;50.982;11.022;2023-09-07T13:50:23;3.80;;;3.13;;
28836;SDS011;50669;50.982;11.022;2023-09-07T13:52:49;3.78;;;2.97;;
28836;SDS011;50669;50.982;11.022;2023-09-07T13:55:17;3.88;;;3.55;;
28836;SDS011;50669;50.982;11.022;2023-09-07T13:57:42;3.53;;;3.08;;
28836;SDS011;50669;50.982;11.022;2023-09-07T14:00:08;3.72;;;3.15;;
28836;SDS011;50669;50.982;11.022;2023-09-07T14:02:34;4.25;;;3.40;;
28836;SDS011;50669;50.982;11.022;2023-09-07T14:05:02;3.33;;;2.85;;
28836;SDS011;50669;50.982;11.022;2023-09-07T14:07:30;4.00;;;3.05;;
28836;SDS011;50669;50.982;11.022;2023-09-07T14:09:56;4.68;;;3.60;;
28836;SDS011;50669;50.982;11.022;2023-09-07T14:12:24;3.63;;;3.20;;
28836;SDS011;50669;50.982;11.022;2023-09-07T14:14:50;4.65;;;3.00;;
28836;SDS011;50669;50.982;11.022;2023-09-07T14:17:20;3.10;;;2.72;;
28836;SDS011;50669;50.982;11.022;2023-09-07T14:19:46;3.80;;;3.00;;
28836;SDS011;50669;50.982;11.022;2023-09-07T14:22:14;3.88;;;3.13;;
28836;SDS011;50669;50.982;11.022;2023-09-07T14:24:40;3.70;;;3.13;;
28836;SDS011;50669;50.982;11.022;2023-09-07T14:27:05;4.45;;;3.10;;
28836;SDS011;50669;50.982;11.022;2023-09-07T14:29:36;4.88;;;3.13;;
28836;SDS011;50669;50.982;11.022;2023-09-07T14:32:02;3.15;;;2.75;;
28836;SDS011;50669;50.982;11.022;2023-09-07T14:34:29;3.30;;;2.67;;
28836;SDS011;50669;50.982;11.022;2023-09-07T14:36:54;4.15;;;2.92;;
28836;SDS011;50669;50.982;11.022;2023-09-07T14:39:21;3.10;;;2.63;;